Timeline UpdatesTrip UpdatesNews PostsPvt Posts♥♥Travel TipsAdmin PostsConv PostsFollowed PostsChat RequestsBlog PostsPNR Posts

Disclaimer
Search
 
 
Wed Nov 26, 2014 13:15:01 ISTHomeTrainsΣChainsAtlasPNRForumGalleryNewsFAQTripsMembersLoginFeedback
PNR Super Search

Ticket PNR Status Inquiry - PNR: 835-xxxxxxx (PRS)

OLD STATUS

Status Last Updated on: Aug 24 2011 (9:10PM) IST

Date of Journey: Thu Aug 25, 2011   Class: Sleeper - SL   (Total Seats available for this Class/Quota: Avbl >437)
Passenger 1: S1,66 (Booking Status: W/L 99,GNWL)
Passenger 2: S1,67 (Booking Status: W/L 100,GNWL)
Passenger 3: S1,69 (Booking Status: W/L 101,GNWL)
Chart PREPARED

Mumbai LTT - Bhagalpur SF Express/12336

Travel Time: 34h 25m    36 halts    Distance: 1914 km    Avg Speed: 55 km/hr
Type: SuperFast
Zone: ER/Eastern
Departs @ 08:05
Platform# 1
S T T  
Mumbai Lokmanya Tilak Terminus/LTT 
Arrives @ 18:30 +1 night
Platform# ???
 M W F 
Bhagalpur Junction/BGP 

36 halts. 309 intermediate Stations between Mumbai Lokmanya Tilak Terminus and Bhagalpur Junction

Show ALL intermediate Stations  Show Old Time-Table

#TrkCodeStation NameX/OArrivesAvgDepartsAvgHaltPFDay#KmSpeedElevZoneAddress
1/==/LTTMumbai Lokmanya Tilak Terminus (5)»  -08:05-110.0737mCRMumbai - 400089, Maharashtra
2/==/KYNKalyan Junction (8)X  08:35-08:40-5m4136.74310mCRKalyan 421301, Maharashtra
3/==/IGPIgatpuri (4)X  10:35-10:40-5m11118.568589mCRIgatpuri 422403, Maharashtra
4/==/NKNasik Road (3)  11:25-11:30-5m11169.197563mCRNashik 422101, Maharashtra
5/==/MMRManmad Junction (6)  12:25 12:15-12:30 12:20-5m11241.985580mCRManmad 423104, Maharashtra
6/==/BSLBhusaval Junction (8)X  14:45 14:30-14:55 14:40-10m71426.176208mCRBhusaval 425201, Maharashtra
7/==/BAUBurhanpur (2)  15:38 15:23-15:40 15:25-2m21480.634269mCRBurhanpur, Madhya Pradesh
8/==/KNWKhandwa Junction (5)X  17:35 17:25-17:40 17:30-5m31549.595310mCRKhandwa, Madhya Pradesh
9/==/HDHarda (3)X  18:38-18:40-2m21657.157289mWCRHarda, Madhya Pradesh
10/==/ETItarsi Junction (7)X20:00-20:10-10m51732.972329mWCRItarsi 461111, Madhya Pradesh
11|==|PPIPipariya (3)  21:06-21:08-2m--1800.181338mWCRPiparia, Madhya Pradesh
12|==|JBPJabalpur Junction (4)X  23:20-23:30-10m31977.978416mWCRJabalpur, Madhya Pradesh
13|==%KTEKatni Junction (6)X  00:40-00:45-5m--21068.774387mWCRKatni, Madhya Pradesh
14%==%STASatna Junction (3)XO  02:10 02:05-02:20 02:15-10m--21167.147322mWCRSatna, Madhya Pradesh
15|==|COIChheoki Junction (3)X  06:08 05:50-06:10 05:55-2 5m221337.18096mNCRDist.-Allahabad, Uttar Pradesh
16/==/MZPMirzapur (3)X  07:13 06:55-07:15 07:00-2 5m--21417.53388mNCRMirzapur, Uttar Pradesh
17/==/MGSMughal Sarai Junction (8)X  08:55-09:10-15m--21480.77583mECRDistt: Chandauli Pin 232101, Uttar Pradesh
18/==/DLNDildarnagar Junction (2)X  09:56-09:58-2m--21538.48072mECRDildarnagar, Uttar Pradesh
19/==/BXRBuxar (3)  10:25-10:27-2m--21574.68967mECRBuxar, Bihar
20/==/DUREDumraon (3)  10:38-10:40-2m--21590.98970mECRDumraon, Bihar
21/==/ARAAra Junction (3)  11:19 11:15-11:21 11:17-2m--21643.17963mECRDistt: Bhojpur Ph 06182-233411, Bihar
22/==/DNRDanapur (5)XO  11:47-11:57-10m--21682.61158mECRKhagaul, Bihar
23/==/PNBEPatna Junction (10)X  12:50-13:00-10m121692.03557mECRPatna 800001, Bihar
24/==/PNCPatna Saheb (3)  13:17-13:19-2m--21701.94359mECRPatna 800008, Bihar
25/==/FUTFatwa (6)X  13:36-13:38-2m--21714.16353mECRPatna, Bihar
26/==/KOOKhusropur (2)X  13:46-13:48-2m--21722.66452mECRPatna, Bihar
27/==/BKPBakhtiyarpur Junction (5)  14:02-14:04-2m--21737.46051mECRPatna, Bihar
28/==/BARHBarh (3)  14:22-14:24-2m--21755.54349mECRBarh, Bihar
29/==/MKAMokama Junction (4)X  15:00-15:05-5m--21781.35348mECRPatna, Bihar
30/==/BRYABarhiya (3)  15:25-15:27-2m--21799.03547mECRBarahiya, Bihar
31/==/LKRLuckeesarai Junction (2)  15:53-15:55-2m--21814.1852mECRLakhisarai, Bihar
32/==/KIULKiul Junction (5)X  16:05-16:12-7m--21815.55953mECRDist. Lakhisarai, Bihar
33!==|KJHKajra (2)  16:28-16:30-2m--21831.24950mERLakhisarai District, Bihar
34|==|AHAAbhaipur (3)  16:39-16:41-2m--21838.53252mERAbhaipur, Bihar
35|-=|JMPJamalpur Junction (4)O  17:22-17:27-5m--21860.36159mERDist: Munger 06344-243101, Bihar
36|==|BUPBariarpur (3)X  17:38-17:40-2m--21871.45442mERMunger, Bihar
37|==|SGGSultanGanj (3)  18:00-18:02-2m--21889.45342mERSultanganj, Bihar
38|==!BGPBhagalpur Junction (6)•  18:30----21914.3-49mERBhagalpur, Bihar
Scroll to Top
Scroll to Bottom